Time;durP1;ratioP1;P1;durP2;ratioP2;P2;SDS_P1;SDS_P2;PMS_P1;PMS_P2;Temp;Humidity;BMP_temperature;BMP_pressure;BME280_temperature;BME280_humidity;BME280_pressure;Samples;Min_cycle;Max_cycle;Signal;HPM_P1;HPM_P2
2021/11/12 00:13:09;;;;;;;40.50;24.65;;;;;;;10.38;68.70;100475.84;6068230;23;20030;-86
2021/11/12 00:15:41;;;;;;;37.10;24.15;;;;;;;10.37;68.64;100476.78;6042651;23;20390;-86
2021/11/12 00:18:08;;;;;;;35.78;23.15;;;;;;;10.36;68.90;100478.53;6042231;23;20026;-86
2021/11/12 00:20:35;;;;;;;42.53;23.88;;;;;;;10.35;68.78;100478.63;6067956;23;20027;-87
2021/11/12 00:23:02;;;;;;;46.08;23.52;;;;;;;10.34;68.77;100476.91;6067346;23;20082;-86
2021/11/12 00:25:28;;;;;;;38.92;24.92;;;;;;;10.34;68.88;100479.53;6042200;23;20099;-86
2021/11/12 00:27:55;;;;;;;36.95;24.27;;;;;;;10.34;68.96;100474.25;6067653;23;20023;-87
2021/11/12 00:30:48;;;;;;;39.83;25.15;;;;;;;10.33;69.11;100477.81;6042193;23;20053;-85
2021/11/12 00:33:45;;;;;;;37.20;23.55;;;;;;;10.32;69.06;100473.50;6067974;23;20023;-85
2021/11/12 00:38:48;;;;;;;39.67;25.20;;;;;;;10.30;69.00;100471.78;6067502;23;20063;-86
2021/11/12 00:43:50;;;;;;;43.97;23.02;;;;;;;10.33;68.87;100476.06;6067169;23;19918;-86
2021/11/12 00:48:54;;;;;;;38.20;24.02;;;;;;;10.29;68.97;100464.78;6067129;23;20023;-86
2021/11/12 00:51:27;;;;;;;38.65;23.58;;;;;;;10.29;69.15;100470.06;6067154;23;20027;-86
2021/11/12 00:54:05;;;;;;;35.10;23.10;;;;;;;10.30;69.40;100463.91;6065785;23;20022;-86
2021/11/12 00:56:32;;;;;;;37.28;22.55;;;;;;;10.30;69.17;100466.53;6067064;23;20025;-86
2021/11/12 00:59:03;;;;;;;37.92;23.77;;;;;;;10.31;69.26;100467.38;6066930;23;20058;-86
2021/11/12 01:01:35;;;;;;;37.45;22.65;;;;;;;10.33;69.47;100469.94;6042085;23;20411;-86
2021/11/12 01:04:04;;;;;;;;;;;;;;;10.37;69.70;100471.50;6042954;23;20023;-86
2021/11/12 01:06:30;;;;;;;34.28;21.73;;;;;;;10.41;68.80;100460.78;6067175;23;20393;-86
2021/11/12 01:08:57;;;;;;;38.20;22.95;;;;;;;10.41;68.98;100466.06;6042022;23;20109;-87
2021/11/12 01:11:24;;;;;;;38.40;21.98;;;;;;;10.41;69.08;100473.09;6041637;23;20027;-86
2021/11/12 01:13:52;;;;;;;38.42;24.77;;;;;;;10.41;69.09;100478.34;6067432;23;20081;-86
2021/11/12 01:16:19;;;;;;;35.38;23.33;;;;;;;10.42;69.08;100469.50;6067695;23;20035;-87
2021/11/12 01:18:47;;;;;;;34.70;23.00;;;;;;;10.43;69.31;100473.84;6041780;23;20358;-86
2021/11/12 01:21:16;;;;;;;34.72;24.05;;;;;;;10.42;69.11;100465.13;6041998;23;20023;-87
2021/11/12 01:23:45;;;;;;;35.38;22.70;;;;;;;10.45;69.06;100461.53;6041604;23;20034;-86
2021/11/12 01:26:15;;;;;;;36.90;24.23;;;;;;;10.48;69.10;100463.16;6067325;23;20387;-85
2021/11/12 01:28:42;;;;;;;41.78;24.50;;;;;;;10.48;68.98;100453.50;6066675;23;20455;-86
2021/11/12 01:31:10;;;;;;;40.67;23.17;;;;;;;10.50;69.07;100448.16;6066984;23;20019;-86
2021/11/12 01:33:38;;;;;;;41.25;22.98;;;;;;;10.50;69.02;100441.09;6041628;23;20078;-86
2021/11/12 01:36:17;;;;;;;43.15;23.35;;;;;;;10.54;69.03;100434.78;6041736;23;20027;-87
2021/11/12 01:38:45;;;;;;;39.88;23.30;;;;;;;10.57;69.07;100430.31;6067018;23;20431;-86
2021/11/12 01:41:14;;;;;;;37.70;22.52;;;;;;;10.58;68.87;100422.31;6066589;23;20467;-87
2021/11/12 01:43:44;;;;;;;36.92;23.58;;;;;;;10.60;68.80;100419.63;6067314;23;20034;-85
2021/11/12 01:53:36;;;;;;;38.65;23.80;;;;;;;10.63;68.70;100416.84;6067521;23;20337;-85
2021/11/12 02:01:31;;;;;;;35.25;21.55;;;;;;;10.68;68.81;100410.44;6066794;23;20022;-86
2021/11/12 02:03:58;;;;;;;40.35;23.00;;;;;;;10.69;68.79;100403.38;6041858;23;20031;-86
2021/11/12 02:06:25;;;;;;;39.60;22.98;;;;;;;10.72;68.87;100403.25;6066684;23;20023;-87
2021/11/12 02:08:53;;;;;;;35.47;22.30;;;;;;;10.75;68.90;100410.16;6066841;23;20457;-86
2021/11/12 02:11:20;;;;;;;43.22;23.50;;;;;;;10.77;68.87;100403.88;6067760;23;20026;-86
2021/11/12 02:13:48;;;;;;;40.63;24.42;;;;;;;10.78;68.60;100405.59;6068907;23;20034;-85
2021/11/12 02:16:29;;;;;;;45.95;25.20;;;;;;;10.80;68.78;100398.47;6067273;23;20026;-87
2021/11/12 02:18:57;;;;;;;42.08;24.75;;;;;;;10.82;68.91;100409.81;6043446;23;20054;-86
2021/11/12 02:21:32;;;;;;;42.42;25.10;;;;;;;10.85;68.78;100400.03;6043456;23;20034;-86
2021/11/12 02:26:29;;;;;;;48.97;26.42;;;;;;;10.88;68.76;100392.84;6068312;23;20031;-86
2021/11/12 02:28:57;;;;;;;43.20;25.02;;;;;;;10.90;68.74;100390.13;6043318;23;20026;-86
2021/11/12 02:31:26;;;;;;;47.53;27.13;;;;;;;10.91;68.80;100384.78;6042923;23;20023;-86
2021/11/12 02:33:55;;;;;;;46.00;26.48;;;;;;;10.94;68.78;100373.25;6043614;23;20026;-85
2021/11/12 02:36:23;;;;;;;46.55;23.67;;;;;;;10.96;68.65;100374.03;6043733;23;20543;-86
2021/11/12 02:38:53;;;;;;;41.10;24.75;;;;;;;10.98;68.69;100376.59;6042900;23;20027;-86
2021/11/12 02:41:24;;;;;;;46.00;26.88;;;;;;;11.00;68.85;100374.75;6043140;23;20094;-86
2021/11/12 02:43:51;;;;;;;42.97;25.50;;;;;;;11.02;68.65;100370.22;6068618;23;20026;-86
2021/11/12 02:46:25;;;;;;;45.20;27.20;;;;;;;11.03;68.84;100372.78;6042973;23;20031;-86
2021/11/12 02:48:52;;;;;;;47.83;25.88;;;;;;;11.07;68.76;100366.44;6043379;23;20097;-86
2021/11/12 02:51:25;;;;;;;49.95;26.25;;;;;;;11.07;68.71;100366.44;6068451;23;20034;-87
2021/11/12 02:53:54;;;;;;;40.25;24.13;;;;;;;11.10;68.62;100361.97;6042845;23;20469;-86
2021/11/12 02:56:28;;;;;;;51.15;26.08;;;;;;;11.10;68.52;100362.81;6043528;23;20027;-85
2021/11/12 02:59:01;;;;;;;48.13;26.92;;;;;;;11.12;68.61;100362.72;6042938;23;20034;-85
2021/11/12 03:01:29;;;;;;;55.22;27.42;;;;;;;11.14;68.56;100358.25;6043098;23;20026;-86
2021/11/12 03:03:57;;;;;;;47.72;26.58;;;;;;;11.14;68.52;100351.19;6068478;23;20065;-87
2021/11/12 03:06:25;;;;;;;57.30;27.60;;;;;;;11.15;68.59;100357.31;6043337;23;20355;-86
2021/11/12 03:08:52;;;;;;;46.55;25.85;;;;;;;11.16;68.45;100348.47;6042654;23;20034;-86
2021/11/12 03:11:18;;;;;;;48.30;26.35;;;;;;;11.15;68.63;100342.38;6043108;23;20026;-87
2021/11/12 03:13:45;;;;;;;50.67;27.30;;;;;;;11.15;68.78;100350.28;6042945;23;20031;-86
2021/11/12 03:16:15;;;;;;;54.03;27.65;;;;;;;11.14;68.61;100345.91;6043120;23;20400;-86
2021/11/12 03:18:42;;;;;;;53.78;27.70;;;;;;;11.15;68.51;100345.00;6066642;23;20030;-86
2021/11/12 03:21:12;;;;;;;53.85;27.98;;;;;;;11.13;68.54;100346.00;6068066;23;20027;-85
2021/11/12 03:23:46;;;;;;;53.97;29.20;;;;;;;11.14;68.65;100345.09;6042526;23;20482;-86
2021/11/12 03:28:56;;;;;;;55.45;29.73;;;;;;;11.14;68.80;100355.63;6068216;23;20030;-86
2021/11/12 03:46:55;;;;;;;;;;;;;;;11.15;68.90;100357.31;6043488;23;20023;-86
2021/11/12 04:01:57;;;;;;;51.15;27.00;;;;;;;11.13;68.65;100324.91;6066612;23;20027;-85
2021/11/12 04:18:21;;;;;;;42.92;23.42;;;;;;;11.14;68.60;100314.31;6007500;23;20059;-86
2021/11/12 05:56:34;;;;;;;44.33;23.35;;;;;;;11.05;68.56;100191.81;6067844;23;20034;-86
2021/11/12 05:59:02;;;;;;;42.67;23.60;;;;;;;11.05;68.59;100170.72;6042561;23;20023;-86
2021/11/12 06:01:28;;;;;;;45.58;23.25;;;;;;;11.05;68.58;100159.34;6042905;23;20354;-86
2021/11/12 06:03:55;;;;;;;46.08;22.65;;;;;;;11.05;68.63;100159.34;6066222;23;20018;-86
2021/11/12 06:06:21;;;;;;;43.42;23.40;;;;;;;11.04;68.63;100161.13;6042967;23;20086;-86
2021/11/12 06:08:48;;;;;;;42.30;23.30;;;;;;;11.07;68.48;100157.50;6067819;23;20090;-87
2021/11/12 06:11:15;;;;;;;41.30;22.17;;;;;;;11.07;68.52;100163.59;6068032;23;20491;-85
2021/11/12 06:13:42;;;;;;;38.20;22.60;;;;;;;11.06;68.53;100151.34;6042445;23;20046;-85
2021/11/12 06:16:09;;;;;;;36.75;22.42;;;;;;;11.07;68.59;100160.97;6067624;23;20042;-87
2021/11/12 06:18:36;;;;;;;34.08;21.70;;;;;;;11.07;68.59;100160.97;6067404;23;20102;-86
2021/11/12 06:21:03;;;;;;;35.58;21.65;;;;;;;11.07;68.67;100150.41;6042164;23;20019;-86
2021/11/12 06:23:30;;;;;;;39.13;22.05;;;;;;;11.09;68.60;100145.06;6042340;23;20019;-86
2021/11/12 06:25:56;;;;;;;34.15;20.40;;;;;;;11.10;68.53;100145.94;6042782;23;20473;-85
2021/11/12 06:28:23;;;;;;;33.42;19.60;;;;;;;11.11;68.43;100145.84;6066156;23;20028;-85
2021/11/12 06:30:49;;;;;;;33.65;19.25;;;;;;;11.12;68.44;100142.28;6067996;23;20031;-86
2021/11/12 06:33:16;;;;;;;28.60;17.98;;;;;;;11.14;68.54;100136.94;6042799;23;20350;-84
2021/11/12 06:35:43;;;;;;;32.22;19.52;;;;;;;11.16;68.42;100133.28;6042226;23;20030;-86
2021/11/12 06:38:12;;;;;;;31.05;18.65;;;;;;;11.16;68.54;100130.66;6066690;23;20022;-87
2021/11/12 06:40:39;;;;;;;28.90;17.88;;;;;;;11.19;68.44;100134.91;6041059;23;20022;-86
2021/11/12 06:43:21;;;;;;;31.80;17.17;;;;;;;11.19;68.29;100125.22;6068180;23;20023;-86
2021/11/12 06:51:24;;;;;;;24.67;16.92;;;;;;;11.22;68.33;100100.50;6067897;23;20046;-86
2021/11/12 06:53:52;;;;;;;26.77;16.92;;;;;;;11.24;68.06;100093.34;6067607;23;20022;-85
2021/11/12 06:56:23;;;;;;;30.27;17.58;;;;;;;11.25;68.05;100097.66;6067588;23;20326;-86
2021/11/12 06:58:51;;;;;;;28.13;16.83;;;;;;;11.25;68.19;100089.75;6042954;23;20027;-86
2021/11/12 07:01:18;;;;;;;27.17;15.50;;;;;;;11.26;68.08;100088.84;6041367;23;20082;-85
2021/11/12 07:03:45;;;;;;;24.45;15.35;;;;;;;11.26;68.00;100091.47;6041081;23;20026;-84
2021/11/12 07:06:13;;;;;;;26.02;15.85;;;;;;;11.27;68.04;100103.72;6066896;23;20030;-86
2021/11/12 07:08:40;;;;;;;22.77;15.00;;;;;;;11.28;68.19;100105.41;6066947;23;20027;-85
2021/11/12 07:11:08;;;;;;;27.20;16.02;;;;;;;11.29;67.93;100106.28;6042075;23;20455;-86
2021/11/12 07:13:35;;;;;;;24.92;15.27;;;;;;;11.29;68.00;100096.56;6042037;23;20030;-85
2021/11/12 07:16:02;;;;;;;24.95;15.88;;;;;;;11.30;68.01;100092.16;6041815;23;20026;-86
2021/11/12 07:18:30;;;;;;;25.88;15.60;;;;;;;11.31;67.98;100089.44;6041587;23;20495;-86
2021/11/12 07:20:57;;;;;;;24.20;15.40;;;;;;;11.32;67.98;100085.88;6041694;23;20027;-86
2021/11/12 07:23:26;;;;;;;22.08;15.13;;;;;;;11.34;67.84;100089.25;6041319;23;20023;-86
2021/11/12 07:25:54;;;;;;;23.13;15.45;;;;;;;11.34;67.74;100086.63;6041340;23;20030;-84
2021/11/12 07:28:24;;;;;;;24.25;15.18;;;;;;;11.35;67.46;100090.13;6040752;23;20404;-87
2021/11/12 07:30:52;;;;;;;22.17;15.13;;;;;;;11.33;67.28;100090.19;6039862;23;20509;-85
2021/11/12 07:33:19;;;;;;;26.00;14.80;;;;;;;11.32;67.44;100085.88;6065180;23;20089;-86
2021/11/12 07:35:52;;;;;;;30.88;15.82;;;;;;;11.31;67.38;100072.78;6066977;23;20087;-86
2021/11/12 07:38:27;;;;;;;26.40;16.40;;;;;;;11.28;67.39;100076.44;6041303;23;20031;-86
2021/11/12 07:46:33;;;;;;;23.67;14.93;;;;;;;11.24;67.01;100069.63;6067307;23;20030;-87
2021/11/12 07:49:02;;;;;;;27.48;16.05;;;;;;;11.22;66.91;100074.13;6041408;23;20483;-87
2021/11/12 07:51:29;;;;;;;25.83;16.90;;;;;;;11.19;67.07;100079.56;6042240;23;20031;-87
2021/11/12 07:53:56;;;;;;;26.10;17.15;;;;;;;11.15;66.82;100073.63;6042184;23;20015;-86
2021/11/12 07:56:24;;;;;;;29.63;17.92;;;;;;;11.15;67.01;100070.13;6042521;23;20027;-86
2021/11/12 07:58:51;;;;;;;23.95;16.67;;;;;;;11.12;67.03;100078.19;6041187;23;20038;-87
2021/11/12 08:01:19;;;;;;;23.77;16.38;;;;;;;11.12;67.04;100072.91;6041402;23;20081;-87
2021/11/12 08:03:49;;;;;;;24.05;16.10;;;;;;;11.09;67.03;100079.22;6041718;23;20023;-87
2021/11/12 08:06:17;;;;;;;26.45;17.02;;;;;;;11.08;67.06;100091.56;6041777;23;20023;-87
2021/11/12 08:08:51;;;;;;;22.75;15.98;;;;;;;11.08;66.85;100106.50;6040784;23;20023;-85
2021/11/12 08:11:34;;;;;;;24.23;17.00;;;;;;;11.05;66.82;100112.78;6066634;23;20023;-86
2021/11/12 08:14:15;;;;;;;23.10;15.55;;;;;;;11.03;67.09;100119.91;6042328;23;20022;-87
2021/11/12 08:22:01;;;;;;;21.50;14.57;;;;;;;10.91;66.46;100118.78;6066268;23;20022;-85
2021/11/12 08:24:39;;;;;;;22.63;13.30;;;;;;;10.87;66.31;100108.50;6041142;23;20022;-86
2021/11/12 08:29:47;;;;;;;19.17;12.70;;;;;;;10.76;66.78;100093.25;6065274;23;20026;-86
2021/11/12 08:40:19;;;;;;;14.88;10.90;;;;;;;10.66;66.62;100072.66;6065223;23;20022;-87
2021/11/12 08:47:44;;;;;;;17.63;11.48;;;;;;;10.64;66.87;100055.25;6064961;23;20454;-87
2021/11/12 08:50:19;;;;;;;17.23;11.23;;;;;;;10.65;66.91;100051.69;6040131;23;20034;-87
2021/11/12 08:52:49;;;;;;;16.15;10.88;;;;;;;10.63;66.70;100046.50;6063452;23;20019;-86
2021/11/12 08:55:19;;;;;;;14.90;10.50;;;;;;;10.64;66.64;100049.97;6040147;23;20038;-86
2021/11/12 08:57:46;;;;;;;14.73;9.63;;;;;;;10.64;66.47;100047.34;6064790;23;20086;-85
2021/11/12 09:00:13;;;;;;;15.48;10.95;;;;;;;10.64;66.37;100044.72;6064635;23;20040;-86
2021/11/12 09:02:40;;;;;;;14.10;9.90;;;;;;;10.63;66.52;100038.63;6040035;23;20026;-87
2021/11/12 09:05:08;;;;;;;13.30;9.07;;;;;;;10.63;66.57;100045.66;6040264;23;20086;-87
2021/11/12 09:07:35;;;;;;;15.02;10.18;;;;;;;10.64;66.68;100034.19;6039818;23;20027;-88
2021/11/12 09:10:03;;;;;;;14.90;10.25;;;;;;;10.65;66.33;100030.63;6064878;23;20034;-86
2021/11/12 09:12:30;;;;;;;16.02;10.27;;;;;;;10.70;66.47;100031.25;6040037;23;20027;-87
2021/11/12 09:14:59;;;;;;;15.38;10.55;;;;;;;10.72;66.26;100031.16;6040129;23;20246;-86
2021/11/12 09:17:28;;;;;;;14.55;9.70;;;;;;;10.75;66.47;100028.34;6064920;23;20027;-86
2021/11/12 09:20:09;;;;;;;13.50;9.43;;;;;;;10.79;66.37;100027.25;6044572;23;20037;-87
2021/11/12 09:22:36;;;;;;;15.40;10.43;;;;;;;10.82;66.25;100035.00;6064627;23;20058;-87
2021/11/12 09:25:04;;;;;;;12.40;9.32;;;;;;;10.85;65.74;100037.47;5993795;23;1114328;-87
2021/11/12 09:27:30;;;;;;;15.45;10.10;;;;;;;10.87;65.79;100027.69;6041422;23;20030;-87
2021/11/12 09:29:57;;;;;;;13.82;10.15;;;;;;;10.90;66.16;100026.66;6043129;23;20033;-83
2021/11/12 09:32:24;;;;;;;12.45;9.23;;;;;;;10.92;66.11;100027.44;6043578;23;20027;-85
2021/11/12 09:34:50;;;;;;;14.98;10.73;;;;;;;10.97;66.12;100035.94;6043468;23;20026;-84
2021/11/12 09:37:22;;;;;;;12.35;9.70;;;;;;;11.02;65.89;100036.53;6043326;23;20109;-84
2021/11/12 09:39:57;;;;;;;14.73;9.75;;;;;;;11.05;65.66;100028.47;6068740;23;20022;-84
2021/11/12 09:42:26;;;;;;;12.05;8.93;;;;;;;11.10;65.38;100022.13;6068826;23;20081;-85
2021/11/12 09:44:54;;;;;;;14.85;9.95;;;;;;;11.14;65.27;100024.47;6069595;23;20031;-85
2021/11/12 09:47:24;;;;;;;15.77;9.32;;;;;;;11.17;65.10;100024.31;6068512;23;20415;-84
2021/11/12 09:49:57;;;;;;;13.05;9.43;;;;;;;11.15;64.31;100023.56;6042896;23;20467;-81
2021/11/12 09:52:26;;;;;;;12.90;8.98;;;;;;;11.16;64.73;100021.75;6042930;23;20023;-83
2021/11/12 09:54:53;;;;;;;13.15;9.50;;;;;;;11.14;64.60;100021.00;6042616;23;20522;-84
2021/11/12 09:57:21;;;;;;;12.50;9.20;;;;;;;11.12;64.66;100017.59;6068708;23;20026;-84
2021/11/12 09:59:54;;;;;;;13.02;9.45;;;;;;;11.07;64.22;100007.31;6042553;23;20023;-83
2021/11/12 10:02:21;;;;;;;13.45;9.82;;;;;;;11.06;64.46;100005.59;6043085;23;20542;-84
2021/11/12 10:04:48;;;;;;;10.82;8.68;;;;;;;11.02;64.53;100007.56;6043414;23;20342;-83
2021/11/12 10:07:21;;;;;;;15.77;9.63;;;;;;;11.01;64.45;100012.91;6043912;23;20027;-84
2021/11/12 10:10:02;;;;;;;12.02;8.45;;;;;;;10.94;64.38;100002.72;6042923;23;20030;-83
2021/11/12 10:12:39;;;;;;;11.40;9.07;;;;;;;10.97;64.36;99999.06;6043293;23;20097;-83
2021/11/12 10:15:32;;;;;;;12.13;9.27;;;;;;;10.94;64.37;99986.94;6043518;23;20027;-83
2021/11/12 10:18:13;;;;;;;9.63;7.80;;;;;;;10.99;64.46;99991.09;6043193;23;20030;-86
2021/11/12 10:21:00;;;;;;;10.75;8.40;;;;;;;11.00;64.51;100001.53;6042605;23;20463;-85
2021/11/12 10:23:32;;;;;;;11.30;8.20;;;;;;;11.04;64.24;99996.94;6043138;23;20019;-81
2021/11/12 10:26:06;;;;;;;11.27;8.80;;;;;;;11.05;64.31;99993.38;6068032;23;20027;-84
2021/11/12 10:28:35;;;;;;;11.40;8.30;;;;;;;11.08;64.62;99986.16;6042729;23;20027;-84
2021/11/12 10:31:20;;;;;;;11.38;8.63;;;;;;;11.09;64.38;99987.00;6068773;23;20320;-83
2021/11/12 10:33:51;;;;;;;11.02;8.68;;;;;;;11.16;64.34;99975.19;6070178;23;20050;-84
2021/11/12 10:36:19;;;;;;;11.63;8.75;;;;;;;11.20;64.62;99983.78;6045172;23;20037;-85
2021/11/12 10:38:49;;;;;;;11.82;9.40;;;;;;;11.24;64.64;99976.53;6045037;23;20030;-84
2021/11/12 10:41:23;;;;;;;11.35;8.77;;;;;;;11.27;64.43;99971.09;6044072;23;20461;-86
2021/11/12 10:43:52;;;;;;;11.70;8.38;;;;;;;11.32;64.61;99969.03;6044359;23;20019;-85
2021/11/12 10:46:41;;;;;;;11.68;9.18;;;;;;;11.33;63.35;99979.50;6069690;23;20030;-84
2021/11/12 10:49:32;;;;;;;12.45;8.48;;;;;;;11.37;63.73;99967.03;6044923;23;20027;-85
2021/11/12 10:52:14;;;;;;;10.90;8.23;;;;;;;11.40;63.67;99958.09;6070883;23;20023;-84
2021/11/12 10:54:59;;;;;;;15.45;9.43;;;;;;;11.44;63.80;99954.34;6070944;23;20023;-83
2021/11/12 10:57:45;;;;;;;10.00;8.23;;;;;;;11.49;63.93;99947.00;6071543;23;20031;-83
2021/11/12 11:00:26;;;;;;;13.48;8.77;;;;;;;11.58;64.78;99945.59;6044696;23;20046;-84
2021/11/12 11:02:58;;;;;;;11.63;8.65;;;;;;;11.66;64.86;99948.66;6070338;23;20034;-84
2021/11/12 11:05:30;;;;;;;12.18;9.20;;;;;;;11.76;64.63;99930.50;6044307;23;20027;-84
2021/11/12 11:08:03;;;;;;;11.88;8.32;;;;;;;11.96;66.13;99937.22;6044435;23;20031;-84
2021/11/12 11:10:38;;;;;;;11.38;9.13;;;;;;;12.33;67.77;99925.38;6070190;23;20030;-84
2021/11/12 11:13:23;;;;;;;12.63;9.55;;;;;;;12.86;70.19;99922.97;6044915;23;20026;-85
2021/11/12 11:15:52;;;;;;;11.63;9.68;;;;;;;13.59;70.83;99913.94;6044417;23;20041;-84
2021/11/12 11:18:24;;;;;;;10.80;9.38;;;;;;;14.34;71.29;99912.34;6044128;23;20034;-85
2021/11/12 11:23:59;;;;;;;9.73;8.50;;;;;;;16.05;64.66;99908.81;6070081;23;20031;-85
2021/11/12 11:26:31;;;;;;;10.02;8.50;;;;;;;16.91;64.43;99921.56;6043966;23;20042;-85
2021/11/12 11:29:00;;;;;;;9.63;8.30;;;;;;;17.62;64.73;99906.94;6069849;23;20085;-85
2021/11/12 11:31:29;;;;;;;9.55;8.35;;;;;;;18.33;63.20;99891.19;6043768;23;20058;-85
2021/11/12 11:33:56;;;;;;;9.00;8.00;;;;;;;19.00;62.16;99893.31;6069939;23;20022;-85
2021/11/12 11:36:26;;;;;;;9.18;8.02;;;;;;;19.63;58.45;99878.66;6069969;23;20026;-84
2021/11/12 11:38:56;;;;;;;11.65;7.65;;;;;;;20.24;57.40;99865.03;6044056;23;20027;-84
2021/11/12 11:41:25;;;;;;;9.43;8.40;;;;;;;20.82;55.85;99854.94;6071598;23;20023;-85
2021/11/12 11:43:54;;;;;;;10.00;7.65;;;;;;;21.34;55.32;99857.91;6069395;23;20027;-83
2021/11/12 11:46:25;;;;;;;8.18;7.15;;;;;;;21.86;54.13;99858.97;6045276;23;20098;-84
2021/11/12 11:48:53;;;;;;;7.75;6.95;;;;;;;22.32;52.58;99853.31;6045389;23;20043;-83
2021/11/12 11:51:23;;;;;;;7.32;6.63;;;;;;;22.72;49.90;99850.94;6070737;23;20086;-84
2021/11/12 11:53:50;;;;;;;7.88;7.18;;;;;;;23.10;50.82;99855.84;6044716;23;20459;-81
2021/11/12 11:56:32;;;;;;;8.45;7.55;;;;;;;23.41;48.05;99851.66;6070331;23;20022;-84
2021/11/12 11:59:01;;;;;;;7.80;6.85;;;;;;;23.72;47.62;99848.25;6068841;23;20050;-84
2021/11/12 12:01:40;;;;;;;8.00;7.20;;;;;;;23.85;43.35;99836.94;6067806;23;20027;-84
2021/11/12 12:04:12;;;;;;;7.50;6.78;;;;;;;23.97;46.15;99834.75;6042518;23;20019;-84
2021/11/12 12:07:01;;;;;;;7.65;6.85;;;;;;;23.96;45.05;99825.00;6067716;23;20384;-84
2021/11/12 12:09:47;;;;;;;7.78;6.43;;;;;;;24.03;44.25;99822.47;6041150;23;20026;-84
2021/11/12 12:12:33;;;;;;;7.32;6.63;;;;;;;24.11;43.69;99819.75;6067387;23;20046;-84
2021/11/12 12:15:12;;;;;;;9.32;6.45;;;;;;;24.24;43.25;99805.75;6041918;23;20049;-84
2021/11/12 12:17:44;;;;;;;7.65;6.70;;;;;;;24.33;41.65;99801.16;6042039;23;20027;-84
2021/11/12 13:25:46;;;;;;;19.15;12.07;;;;;;;15.24;49.65;99748.63;6065978;23;20026;-86
2021/11/12 13:28:24;;;;;;;14.00;11.98;;;;;;;15.13;49.91;99744.16;6066261;23;20335;-85
2021/11/12 13:31:05;;;;;;;16.65;13.32;;;;;;;15.04;49.46;99744.88;6066161;23;20034;-85
2021/11/12 13:33:49;;;;;;;18.05;13.32;;;;;;;14.91;50.16;99744.97;6066854;23;20402;-86
2021/11/12 13:36:20;;;;;;;18.10;14.05;;;;;;;14.85;50.71;99748.91;6040955;23;20404;-86
2021/11/12 13:39:04;;;;;;;16.58;12.15;;;;;;;14.72;51.03;99739.22;6040534;23;20478;-86
2021/11/12 13:41:35;;;;;;;14.43;11.40;;;;;;;14.72;51.33;99744.50;6066670;23;20347;-86
2021/11/12 13:44:08;;;;;;;16.88;12.65;;;;;;;14.73;51.36;99742.72;6041733;23;20029;-86
2021/11/12 13:46:47;;;;;;;16.05;11.43;;;;;;;14.72;51.21;99735.69;6042232;23;20023;-86
2021/11/12 13:49:34;;;;;;;16.90;12.40;;;;;;;14.73;51.38;99740.06;6067377;23;20482;-86
2021/11/12 13:52:11;;;;;;;15.80;11.75;;;;;;;14.75;51.29;99730.19;6042094;23;20466;-86
2021/11/12 13:54:39;;;;;;;16.13;12.13;;;;;;;14.76;51.62;99725.75;6042315;23;20078;-85
2021/11/12 13:57:09;;;;;;;15.48;12.75;;;;;;;14.76;51.36;99726.59;6066970;23;20046;-87
2021/11/12 13:59:35;;;;;;;15.48;12.80;;;;;;;14.72;51.60;99718.00;6066645;23;20026;-86
2021/11/12 14:02:03;;;;;;;17.17;12.57;;;;;;;14.68;51.35;99713.03;6041718;23;20027;-86
2021/11/12 14:04:32;;;;;;;14.48;12.88;;;;;;;14.63;51.36;99710.75;6041533;23;20019;-86
2021/11/12 14:06:59;;;;;;;14.82;11.95;;;;;;;14.56;51.49;99704.22;6067803;23;20033;-86
2021/11/12 14:09:33;;;;;;;16.00;12.48;;;;;;;14.48;51.47;99706.59;6069089;23;20023;-86
2021/11/12 14:12:04;;;;;;;18.65;13.10;;;;;;;14.40;51.84;99721.28;6044472;23;20043;-86
2021/11/12 14:14:33;;;;;;;16.95;13.07;;;;;;;14.34;51.73;99716.41;6069477;23;20043;-86
2021/11/12 14:17:29;;;;;;;15.75;12.68;;;;;;;14.21;51.39;99724.41;6069124;23;20023;-85
2021/11/12 14:23:17;;;;;;;15.50;12.55;;;;;;;13.98;52.20;99699.63;6068310;23;20466;-85
2021/11/12 14:26:22;;;;;;;15.83;12.17;;;;;;;13.90;52.54;99693.06;6068565;23;20023;-86
2021/11/12 14:35:06;;;;;;;19.83;13.20;;;;;;;13.82;52.73;99663.66;5980507;24;20352;-85
2021/11/12 14:40:36;;;;;;;18.17;14.13;;;;;;;13.75;52.72;99650.03;6069020;23;20026;-85
2021/11/12 14:54:52;;;;;;;22.02;15.38;;;;;;;13.36;53.16;99626.31;6069606;23;20026;-85
2021/11/12 14:59:51;;;;;;;24.13;15.98;;;;;;;13.31;53.18;99611.72;6068209;23;20078;-86
2021/11/12 15:02:18;;;;;;;21.02;15.30;;;;;;;13.25;53.32;99607.72;6067610;23;20038;-85
2021/11/12 15:04:45;;;;;;;17.58;15.10;;;;;;;13.20;53.41;99607.22;6069060;23;20474;-85
2021/11/12 15:07:21;;;;;;;24.65;15.38;;;;;;;13.13;53.34;99604.16;6069203;23;20073;-85
2021/11/12 15:09:49;;;;;;;21.05;15.35;;;;;;;13.05;53.14;99607.34;6068588;23;20107;-85
2021/11/12 15:12:16;;;;;;;21.08;15.07;;;;;;;12.96;53.23;99598.25;6068841;23;20395;-85
2021/11/12 15:14:48;;;;;;;16.10;13.35;;;;;;;12.88;53.45;99598.78;6042917;23;20400;-85
2021/11/12 15:17:15;;;;;;;18.70;13.93;;;;;;;12.80;53.44;99592.34;6068837;23;20030;-85
2021/11/12 15:19:45;;;;;;;18.08;14.13;;;;;;;12.70;53.56;99598.25;6042918;23;20462;-86
2021/11/12 15:22:56;;;;;;;17.77;13.85;;;;;;;12.60;53.70;99598.03;6044250;23;20030;-86
2021/11/12 15:27:53;;;;;;;20.00;14.80;;;;;;;12.35;53.86;99588.28;6068779;23;20029;-84
2021/11/12 15:30:29;;;;;;;19.35;14.02;;;;;;;12.23;54.07;99584.69;6043966;23;20030;-84
2021/11/12 15:33:04;;;;;;;19.02;14.82;;;;;;;12.07;54.10;99577.78;6045604;23;20023;-84
2021/11/12 15:35:32;;;;;;;19.10;14.23;;;;;;;11.93;54.45;99580.47;6071064;23;20019;-85
2021/11/12 15:38:15;;;;;;;18.58;15.27;;;;;;;11.80;54.83;99583.91;6069524;23;20034;-82
2021/11/12 15:40:47;;;;;;;17.40;13.40;;;;;;;11.67;55.03;99581.19;6070833;23;20022;-82
2021/11/12 15:43:25;;;;;;;18.67;14.18;;;;;;;11.55;55.38;99582.84;6070066;23;20093;-85
2021/11/12 15:48:39;;;;;;;18.05;14.65;;;;;;;11.35;55.64;99581.47;6069558;23;20029;-84
2021/11/12 16:09:38;;;;;;;21.27;13.07;;;;;;;10.89;57.03;99582.56;6069160;23;20039;-86
2021/11/12 16:17:34;;;;;;;20.13;13.07;;;;;;;10.82;57.25;99575.03;6069905;23;20023;-85
2021/11/12 16:23:12;;;;;;;17.65;11.88;;;;;;;10.84;57.57;99568.84;6070579;23;20031;-85
2021/11/12 16:25:41;;;;;;;19.02;12.07;;;;;;;10.85;57.59;99566.09;6041207;23;20018;-85
2021/11/12 16:28:12;;;;;;;18.98;12.13;;;;;;;10.87;57.58;99571.28;6041350;23;20034;-84
2021/11/12 16:30:39;;;;;;;17.48;12.15;;;;;;;10.89;57.64;99561.50;6068721;23;20027;-85
2021/11/12 16:33:07;;;;;;;17.35;11.88;;;;;;;10.90;57.63;99557.91;6070175;23;20045;-85
2021/11/12 16:35:36;;;;;;;17.30;12.30;;;;;;;10.94;57.67;99559.41;6044891;23;20030;-85
2021/11/12 16:38:13;;;;;;;17.13;11.45;;;;;;;10.97;57.51;99561.00;6044946;23;20046;-86
2021/11/12 16:40:43;;;;;;;16.13;11.38;;;;;;;10.98;57.63;99547.75;6043844;23;20034;-84
2021/11/12 16:43:20;;;;;;;17.30;11.45;;;;;;;11.00;57.46;99548.50;6069861;23;20042;-84
2021/11/12 16:56:40;;;;;;;16.50;12.15;;;;;;;11.05;57.42;99533.25;6066487;23;20023;-86
2021/11/12 17:15:06;;;;;;;16.17;12.65;;;;;;;10.97;57.65;99511.81;6067687;23;20038;-85
2021/11/12 17:47:40;;;;;;;12.50;9.88;;;;;;;11.02;57.03;99475.50;6070092;23;20042;-84
2021/11/12 18:03:39;;;;;;;13.90;10.18;;;;;;;11.14;56.34;99462.50;6068411;23;20027;-88
2021/11/12 18:06:22;;;;;;;12.68;9.13;;;;;;;11.15;56.44;99462.41;6070332;23;20023;-86
2021/11/12 18:09:11;;;;;;;14.80;10.55;;;;;;;11.16;56.32;99466.72;6070774;23;20027;-86
2021/11/12 18:12:21;;;;;;;16.42;9.63;;;;;;;11.19;56.18;99461.28;6068821;23;20046;-85
2021/11/12 21:44:47;;;;;;;12.52;8.90;;;;;;;10.47;56.72;99388.53;6068395;23;20026;-85
2021/11/12 21:47:14;;;;;;;13.43;8.65;;;;;;;10.49;57.00;99385.81;6043884;23;20026;-83
2021/11/12 21:49:41;;;;;;;15.32;9.18;;;;;;;10.47;56.70;99385.88;6068409;23;20483;-85
2021/11/12 21:52:08;;;;;;;15.40;8.88;;;;;;;10.48;56.58;99378.84;6068593;23;20027;-85